sensor_id;sensor_type;location;lat;lon;timestamp;temperature;humidity
18091;DHT22;9172;49.948;9.208;2024-03-29T00:01:38;8.50;99.90
18091;DHT22;9172;49.948;9.208;2024-03-29T00:04:07;8.50;99.90
18091;DHT22;9172;49.948;9.208;2024-03-29T00:06:35;8.60;99.90
18091;DHT22;9172;49.948;9.208;2024-03-29T00:09:04;8.60;99.90
18091;DHT22;9172;49.948;9.208;2024-03-29T00:11:32;8.60;99.90
18091;DHT22;9172;49.948;9.208;2024-03-29T00:14:01;8.60;99.90
18091;DHT22;9172;49.948;9.208;2024-03-29T00:16:30;8.60;99.90
18091;DHT22;9172;49.948;9.208;2024-03-29T00:18:58;8.60;99.90
18091;DHT22;9172;49.948;9.208;2024-03-29T00:21:27;8.70;99.90
18091;DHT22;9172;49.948;9.208;2024-03-29T00:23:55;8.70;99.90
18091;DHT22;9172;49.948;9.208;2024-03-29T00:26:24;8.70;99.90
18091;DHT22;9172;49.948;9.208;2024-03-29T00:28:52;8.70;99.90
18091;DHT22;9172;49.948;9.208;2024-03-29T00:31:22;8.80;99.90
18091;DHT22;9172;49.948;9.208;2024-03-29T00:33:51;8.80;99.90
18091;DHT22;9172;49.948;9.208;2024-03-29T00:36:19;8.80;99.90
18091;DHT22;9172;49.948;9.208;2024-03-29T00:38:48;8.80;99.90
18091;DHT22;9172;49.948;9.208;2024-03-29T00:41:16;8.90;99.90
18091;DHT22;9172;49.948;9.208;2024-03-29T00:43:45;8.90;99.90
18091;DHT22;9172;49.948;9.208;2024-03-29T00:46:13;9.00;99.90
18091;DHT22;9172;49.948;9.208;2024-03-29T00:48:42;9.10;99.90
18091;DHT22;9172;49.948;9.208;2024-03-29T00:51:12;9.10;99.90
18091;DHT22;9172;49.948;9.208;2024-03-29T00:53:41;9.20;99.90
18091;DHT22;9172;49.948;9.208;2024-03-29T00:56:09;9.20;99.90
18091;DHT22;9172;49.948;9.208;2024-03-29T00:58:38;9.20;99.90
18091;DHT22;9172;49.948;9.208;2024-03-29T01:01:06;9.20;99.90
18091;DHT22;9172;49.948;9.208;2024-03-29T01:03:35;9.20;99.90
18091;DHT22;9172;49.948;9.208;2024-03-29T01:06:04;9.30;99.90
18091;DHT22;9172;49.948;9.208;2024-03-29T01:08:32;9.30;99.90
18091;DHT22;9172;49.948;9.208;2024-03-29T01:11:01;9.30;99.90
18091;DHT22;9172;49.948;9.208;2024-03-29T01:13:30;9.30;99.90
18091;DHT22;9172;49.948;9.208;2024-03-29T01:15:58;9.30;99.90
18091;DHT22;9172;49.948;9.208;2024-03-29T01:18:27;9.30;99.90
18091;DHT22;9172;49.948;9.208;2024-03-29T01:20:55;9.30;99.90
18091;DHT22;9172;49.948;9.208;2024-03-29T01:23:24;9.30;99.90
18091;DHT22;9172;49.948;9.208;2024-03-29T01:25:52;9.30;99.90
18091;DHT22;9172;49.948;9.208;2024-03-29T01:28:21;9.40;99.90
18091;DHT22;9172;49.948;9.208;2024-03-29T01:30:53;9.40;99.90
18091;DHT22;9172;49.948;9.208;2024-03-29T01:33:22;9.40;99.90
18091;DHT22;9172;49.948;9.208;2024-03-29T01:35:51;9.40;99.90
18091;DHT22;9172;49.948;9.208;2024-03-29T01:38:19;9.50;99.90
18091;DHT22;9172;49.948;9.208;2024-03-29T01:40:50;9.50;99.90
18091;DHT22;9172;49.948;9.208;2024-03-29T01:43:19;9.50;99.90
18091;DHT22;9172;49.948;9.208;2024-03-29T01:45:49;9.50;99.90
18091;DHT22;9172;49.948;9.208;2024-03-29T01:48:20;9.50;99.90
18091;DHT22;9172;49.948;9.208;2024-03-29T01:50:50;9.50;99.90
18091;DHT22;9172;49.948;9.208;2024-03-29T01:53:20;9.50;99.90
18091;DHT22;9172;49.948;9.208;2024-03-29T01:55:49;9.60;99.90
18091;DHT22;9172;49.948;9.208;2024-03-29T01:58:18;9.60;99.90
18091;DHT22;9172;49.948;9.208;2024-03-29T02:03:28;9.70;99.90
18091;DHT22;9172;49.948;9.208;2024-03-29T02:05:57;9.60;99.90
18091;DHT22;9172;49.948;9.208;2024-03-29T02:08:27;9.60;99.90
18091;DHT22;9172;49.948;9.208;2024-03-29T02:10:57;9.60;99.90
18091;DHT22;9172;49.948;9.208;2024-03-29T02:13:26;9.60;99.90
18091;DHT22;9172;49.948;9.208;2024-03-29T02:15:54;9.70;99.90
18091;DHT22;9172;49.948;9.208;2024-03-29T02:18:23;9.70;99.90
18091;DHT22;9172;49.948;9.208;2024-03-29T02:20:51;9.70;99.90
18091;DHT22;9172;49.948;9.208;2024-03-29T02:25:59;9.70;99.90
18091;DHT22;9172;49.948;9.208;2024-03-29T02:28:28;9.70;99.90
18091;DHT22;9172;49.948;9.208;2024-03-29T02:30:56;9.70;99.90
18091;DHT22;9172;49.948;9.208;2024-03-29T02:33:25;9.70;99.90
18091;DHT22;9172;49.948;9.208;2024-03-29T02:35:54;9.70;99.90
18091;DHT22;9172;49.948;9.208;2024-03-29T02:38:23;9.70;99.90
18091;DHT22;9172;49.948;9.208;2024-03-29T02:40:51;9.70;99.90
18091;DHT22;9172;49.948;9.208;2024-03-29T02:43:20;9.70;99.90
18091;DHT22;9172;49.948;9.208;2024-03-29T02:45:48;9.70;99.90
18091;DHT22;9172;49.948;9.208;2024-03-29T02:48:17;9.70;99.90
18091;DHT22;9172;49.948;9.208;2024-03-29T02:50:45;9.70;99.90
18091;DHT22;9172;49.948;9.208;2024-03-29T02:53:14;9.70;99.90
18091;DHT22;9172;49.948;9.208;2024-03-29T02:55:43;9.70;99.90
18091;DHT22;9172;49.948;9.208;2024-03-29T02:58:11;9.70;99.90
18091;DHT22;9172;49.948;9.208;2024-03-29T03:00:40;9.70;99.90
18091;DHT22;9172;49.948;9.208;2024-03-29T03:03:08;9.70;99.90
18091;DHT22;9172;49.948;9.208;2024-03-29T03:05:37;9.70;99.90
18091;DHT22;9172;49.948;9.208;2024-03-29T03:08:07;9.70;99.90
18091;DHT22;9172;49.948;9.208;2024-03-29T03:10:53;9.70;99.90
18091;DHT22;9172;49.948;9.208;2024-03-29T03:13:27;9.70;99.90
18091;DHT22;9172;49.948;9.208;2024-03-29T03:15:56;9.70;99.90
18091;DHT22;9172;49.948;9.208;2024-03-29T03:18:25;9.70;99.90
18091;DHT22;9172;49.948;9.208;2024-03-29T03:20:54;9.70;99.90
18091;DHT22;9172;49.948;9.208;2024-03-29T03:23:25;9.70;99.90
18091;DHT22;9172;49.948;9.208;2024-03-29T03:25:55;9.70;99.90
18091;DHT22;9172;49.948;9.208;2024-03-29T03:28:24;9.70;99.90
18091;DHT22;9172;49.948;9.208;2024-03-29T03:30:54;9.70;99.90
18091;DHT22;9172;49.948;9.208;2024-03-29T03:33:22;9.70;99.90
18091;DHT22;9172;49.948;9.208;2024-03-29T03:35:51;9.70;99.90
18091;DHT22;9172;49.948;9.208;2024-03-29T03:38:20;9.70;99.90
18091;DHT22;9172;49.948;9.208;2024-03-29T03:40:48;9.70;99.90
18091;DHT22;9172;49.948;9.208;2024-03-29T03:43:17;9.70;99.90
18091;DHT22;9172;49.948;9.208;2024-03-29T03:45:46;9.70;99.90
18091;DHT22;9172;49.948;9.208;2024-03-29T03:48:15;9.70;99.90
18091;DHT22;9172;49.948;9.208;2024-03-29T03:50:44;9.70;99.90
18091;DHT22;9172;49.948;9.208;2024-03-29T03:53:12;9.80;99.90
18091;DHT22;9172;49.948;9.208;2024-03-29T03:55:41;9.80;99.90
18091;DHT22;9172;49.948;9.208;2024-03-29T03:58:09;9.80;99.90
18091;DHT22;9172;49.948;9.208;2024-03-29T04:00:38;9.80;99.90
18091;DHT22;9172;49.948;9.208;2024-03-29T04:03:07;9.90;99.90
18091;DHT22;9172;49.948;9.208;2024-03-29T04:05:37;9.90;99.90
18091;DHT22;9172;49.948;9.208;2024-03-29T04:08:06;9.90;99.90
18091;DHT22;9172;49.948;9.208;2024-03-29T04:10:39;9.90;99.90
18091;DHT22;9172;49.948;9.208;2024-03-29T04:13:08;9.90;99.90
18091;DHT22;9172;49.948;9.208;2024-03-29T04:15:37;10.00;99.90
18091;DHT22;9172;49.948;9.208;2024-03-29T04:18:06;9.90;99.90
18091;DHT22;9172;49.948;9.208;2024-03-29T04:20:35;9.90;99.90
18091;DHT22;9172;49.948;9.208;2024-03-29T04:23:05;9.90;99.90
18091;DHT22;9172;49.948;9.208;2024-03-29T04:25:34;9.90;99.90
18091;DHT22;9172;49.948;9.208;2024-03-29T04:28:02;9.90;99.90
18091;DHT22;9172;49.948;9.208;2024-03-29T04:30:31;10.00;99.90
18091;DHT22;9172;49.948;9.208;2024-03-29T04:32:59;10.00;99.90
18091;DHT22;9172;49.948;9.208;2024-03-29T04:35:28;10.10;99.90
18091;DHT22;9172;49.948;9.208;2024-03-29T04:37:57;10.10;99.90
18091;DHT22;9172;49.948;9.208;2024-03-29T04:43:03;10.20;99.90
18091;DHT22;9172;49.948;9.208;2024-03-29T04:45:32;10.20;99.90
18091;DHT22;9172;49.948;9.208;2024-03-29T04:48:00;10.30;99.90
18091;DHT22;9172;49.948;9.208;2024-03-29T04:50:29;10.30;99.90
18091;DHT22;9172;49.948;9.208;2024-03-29T04:52:57;10.30;99.90
18091;DHT22;9172;49.948;9.208;2024-03-29T04:55:26;10.40;99.90
18091;DHT22;9172;49.948;9.208;2024-03-29T04:57:54;10.40;99.90
18091;DHT22;9172;49.948;9.208;2024-03-29T05:00:23;10.40;99.90
18091;DHT22;9172;49.948;9.208;2024-03-29T05:02:52;10.30;99.90
18091;DHT22;9172;49.948;9.208;2024-03-29T05:05:21;10.20;99.90
18091;DHT22;9172;49.948;9.208;2024-03-29T05:07:49;10.20;99.90
18091;DHT22;9172;49.948;9.208;2024-03-29T05:10:18;10.10;99.90
18091;DHT22;9172;49.948;9.208;2024-03-29T05:12:48;10.00;99.90
18091;DHT22;9172;49.948;9.208;2024-03-29T05:15:18;9.90;99.90
18091;DHT22;9172;49.948;9.208;2024-03-29T05:17:46;9.80;99.90
18091;DHT22;9172;49.948;9.208;2024-03-29T05:20:15;9.70;99.90
18091;DHT22;9172;49.948;9.208;2024-03-29T05:22:44;9.60;99.90
18091;DHT22;9172;49.948;9.208;2024-03-29T05:25:13;9.50;99.90
18091;DHT22;9172;49.948;9.208;2024-03-29T05:27:41;9.40;99.90
18091;DHT22;9172;49.948;9.208;2024-03-29T05:30:11;9.30;99.90
18091;DHT22;9172;49.948;9.208;2024-03-29T05:32:40;9.30;99.90
18091;DHT22;9172;49.948;9.208;2024-03-29T05:35:10;9.20;99.90
18091;DHT22;9172;49.948;9.208;2024-03-29T05:37:38;9.20;99.90
18091;DHT22;9172;49.948;9.208;2024-03-29T05:40:09;9.10;99.90
18091;DHT22;9172;49.948;9.208;2024-03-29T05:42:38;9.10;99.90
18091;DHT22;9172;49.948;9.208;2024-03-29T05:47:46;9.10;99.90
18091;DHT22;9172;49.948;9.208;2024-03-29T05:50:14;9.00;99.90
18091;DHT22;9172;49.948;9.208;2024-03-29T05:52:43;9.00;99.90
18091;DHT22;9172;49.948;9.208;2024-03-29T05:55:12;9.00;99.90
18091;DHT22;9172;49.948;9.208;2024-03-29T05:57:40;9.00;99.90
18091;DHT22;9172;49.948;9.208;2024-03-29T06:02:50;9.00;99.90
18091;DHT22;9172;49.948;9.208;2024-03-29T06:05:18;9.00;99.90
18091;DHT22;9172;49.948;9.208;2024-03-29T06:07:47;9.10;99.90
18091;DHT22;9172;49.948;9.208;2024-03-29T06:10:16;9.10;99.90
18091;DHT22;9172;49.948;9.208;2024-03-29T06:12:44;9.10;99.90
18091;DHT22;9172;49.948;9.208;2024-03-29T06:15:13;9.10;99.90
18091;DHT22;9172;49.948;9.208;2024-03-29T06:18:00;9.20;99.90
18091;DHT22;9172;49.948;9.208;2024-03-29T06:20:28;9.20;99.90
18091;DHT22;9172;49.948;9.208;2024-03-29T06:22:57;9.20;99.90
18091;DHT22;9172;49.948;9.208;2024-03-29T06:25:26;9.30;99.90
18091;DHT22;9172;49.948;9.208;2024-03-29T06:27:54;9.30;99.90
18091;DHT22;9172;49.948;9.208;2024-03-29T06:30:23;9.40;99.90
18091;DHT22;9172;49.948;9.208;2024-03-29T06:32:52;9.40;99.90
18091;DHT22;9172;49.948;9.208;2024-03-29T06:35:20;9.50;99.90
18091;DHT22;9172;49.948;9.208;2024-03-29T06:37:49;9.50;99.90
18091;DHT22;9172;49.948;9.208;2024-03-29T06:40:18;9.60;99.90
18091;DHT22;9172;49.948;9.208;2024-03-29T06:42:46;9.60;99.90
18091;DHT22;9172;49.948;9.208;2024-03-29T06:45:15;9.60;99.90
18091;DHT22;9172;49.948;9.208;2024-03-29T06:47:44;9.70;99.90
18091;DHT22;9172;49.948;9.208;2024-03-29T06:50:12;9.60;99.90
18091;DHT22;9172;49.948;9.208;2024-03-29T06:52:41;9.70;99.90
18091;DHT22;9172;49.948;9.208;2024-03-29T06:55:10;9.70;99.90
18091;DHT22;9172;49.948;9.208;2024-03-29T07:00:16;9.60;99.90
18091;DHT22;9172;49.948;9.208;2024-03-29T07:02:45;9.60;99.90
18091;DHT22;9172;49.948;9.208;2024-03-29T07:05:14;9.50;99.90
18091;DHT22;9172;49.948;9.208;2024-03-29T07:07:43;9.50;99.90
18091;DHT22;9172;49.948;9.208;2024-03-29T07:10:13;9.40;99.90
18091;DHT22;9172;49.948;9.208;2024-03-29T07:12:42;9.40;99.90
18091;DHT22;9172;49.948;9.208;2024-03-29T07:15:11;9.50;99.90
18091;DHT22;9172;49.948;9.208;2024-03-29T07:17:39;9.50;99.90
18091;DHT22;9172;49.948;9.208;2024-03-29T07:20:11;9.40;99.90
18091;DHT22;9172;49.948;9.208;2024-03-29T07:22:39;9.50;99.90
18091;DHT22;9172;49.948;9.208;2024-03-29T07:25:08;9.50;99.90
18091;DHT22;9172;49.948;9.208;2024-03-29T07:27:37;9.50;99.90
18091;DHT22;9172;49.948;9.208;2024-03-29T07:30:07;9.50;99.90
18091;DHT22;9172;49.948;9.208;2024-03-29T07:32:38;9.50;99.90
18091;DHT22;9172;49.948;9.208;2024-03-29T07:35:08;9.50;99.90
18091;DHT22;9172;49.948;9.208;2024-03-29T07:37:36;9.50;99.90
18091;DHT22;9172;49.948;9.208;2024-03-29T07:40:08;9.60;99.90
18091;DHT22;9172;49.948;9.208;2024-03-29T07:42:37;9.60;99.90
18091;DHT22;9172;49.948;9.208;2024-03-29T07:45:07;9.60;99.90
18091;DHT22;9172;49.948;9.208;2024-03-29T07:47:35;9.60;99.90
18091;DHT22;9172;49.948;9.208;2024-03-29T07:50:05;9.70;99.90
18091;DHT22;9172;49.948;9.208;2024-03-29T07:52:34;9.70;99.90
18091;DHT22;9172;49.948;9.208;2024-03-29T07:55:04;9.80;99.90
18091;DHT22;9172;49.948;9.208;2024-03-29T07:57:32;9.80;99.90
18091;DHT22;9172;49.948;9.208;2024-03-29T08:00:01;9.80;99.90
18091;DHT22;9172;49.948;9.208;2024-03-29T08:02:32;9.90;99.90
18091;DHT22;9172;49.948;9.208;2024-03-29T08:07:38;9.90;99.90
18091;DHT22;9172;49.948;9.208;2024-03-29T08:10:08;9.90;99.90
18091;DHT22;9172;49.948;9.208;2024-03-29T08:12:37;9.90;99.90
18091;DHT22;9172;49.948;9.208;2024-03-29T08:15:07;10.00;99.90
18091;DHT22;9172;49.948;9.208;2024-03-29T08:17:37;10.00;99.90
18091;DHT22;9172;49.948;9.208;2024-03-29T08:20:07;10.00;99.90
18091;DHT22;9172;49.948;9.208;2024-03-29T08:22:35;10.10;99.90
18091;DHT22;9172;49.948;9.208;2024-03-29T08:25:05;10.10;99.90
18091;DHT22;9172;49.948;9.208;2024-03-29T08:27:34;10.10;99.90
18091;DHT22;9172;49.948;9.208;2024-03-29T08:30:03;10.10;99.90
18091;DHT22;9172;49.948;9.208;2024-03-29T08:32:32;10.20;99.90
18091;DHT22;9172;49.948;9.208;2024-03-29T08:35:01;10.20;99.90
18091;DHT22;9172;49.948;9.208;2024-03-29T08:37:29;10.20;99.90
18091;DHT22;9172;49.948;9.208;2024-03-29T08:39:58;10.20;99.90
18091;DHT22;9172;49.948;9.208;2024-03-29T08:45:05;10.20;99.90
18091;DHT22;9172;49.948;9.208;2024-03-29T08:47:35;10.20;99.90
18091;DHT22;9172;49.948;9.208;2024-03-29T08:50:05;10.20;99.90
18091;DHT22;9172;49.948;9.208;2024-03-29T08:52:33;10.30;99.90
18091;DHT22;9172;49.948;9.208;2024-03-29T08:55:02;10.30;99.90
18091;DHT22;9172;49.948;9.208;2024-03-29T08:57:30;10.30;99.90
18091;DHT22;9172;49.948;9.208;2024-03-29T09:00:00;10.30;99.90
18091;DHT22;9172;49.948;9.208;2024-03-29T09:02:28;10.30;99.90
18091;DHT22;9172;49.948;9.208;2024-03-29T09:04:57;10.30;99.90
18091;DHT22;9172;49.948;9.208;2024-03-29T09:07:26;10.30;99.90
18091;DHT22;9172;49.948;9.208;2024-03-29T09:09:55;10.30;99.90
18091;DHT22;9172;49.948;9.208;2024-03-29T09:12:24;10.30;99.90
18091;DHT22;9172;49.948;9.208;2024-03-29T09:14:53;10.30;99.90
18091;DHT22;9172;49.948;9.208;2024-03-29T09:17:22;10.30;99.90
18091;DHT22;9172;49.948;9.208;2024-03-29T09:19:52;10.30;99.90
18091;DHT22;9172;49.948;9.208;2024-03-29T09:22:21;10.30;99.90
18091;DHT22;9172;49.948;9.208;2024-03-29T09:24:49;10.30;99.90
18091;DHT22;9172;49.948;9.208;2024-03-29T09:27:18;10.20;99.90
18091;DHT22;9172;49.948;9.208;2024-03-29T09:29:49;10.30;99.90
18091;DHT22;9172;49.948;9.208;2024-03-29T09:32:17;10.20;99.90
18091;DHT22;9172;49.948;9.208;2024-03-29T09:37:24;10.00;99.90
18091;DHT22;9172;49.948;9.208;2024-03-29T09:39:53;10.00;99.90
18091;DHT22;9172;49.948;9.208;2024-03-29T09:42:22;10.00;99.90
18091;DHT22;9172;49.948;9.208;2024-03-29T09:44:55;10.00;99.90
18091;DHT22;9172;49.948;9.208;2024-03-29T09:47:24;9.90;99.90
18091;DHT22;9172;49.948;9.208;2024-03-29T09:49:54;9.90;99.90
18091;DHT22;9172;49.948;9.208;2024-03-29T09:52:24;9.90;99.90
18091;DHT22;9172;49.948;9.208;2024-03-29T09:54:53;9.80;99.90
18091;DHT22;9172;49.948;9.208;2024-03-29T09:57:23;9.80;99.90
18091;DHT22;9172;49.948;9.208;2024-03-29T09:59:53;9.80;99.90
18091;DHT22;9172;49.948;9.208;2024-03-29T10:02:25;9.80;99.90
18091;DHT22;9172;49.948;9.208;2024-03-29T10:04:56;9.80;99.90
18091;DHT22;9172;49.948;9.208;2024-03-29T10:07:25;9.70;99.90
18091;DHT22;9172;49.948;9.208;2024-03-29T10:09:55;9.70;99.90
18091;DHT22;9172;49.948;9.208;2024-03-29T10:12:25;9.70;99.90
18091;DHT22;9172;49.948;9.208;2024-03-29T10:14:56;9.70;99.90
18091;DHT22;9172;49.948;9.208;2024-03-29T10:17:27;9.60;99.90
18091;DHT22;9172;49.948;9.208;2024-03-29T10:19:58;9.60;99.90
18091;DHT22;9172;49.948;9.208;2024-03-29T10:22:26;9.60;99.90
18091;DHT22;9172;49.948;9.208;2024-03-29T10:24:56;9.50;99.90
18091;DHT22;9172;49.948;9.208;2024-03-29T10:27:26;9.50;99.90
18091;DHT22;9172;49.948;9.208;2024-03-29T10:29:55;9.50;99.90
18091;DHT22;9172;49.948;9.208;2024-03-29T10:32:24;9.50;99.90
18091;DHT22;9172;49.948;9.208;2024-03-29T10:34:52;9.40;99.90
18091;DHT22;9172;49.948;9.208;2024-03-29T10:37:21;9.40;99.90
18091;DHT22;9172;49.948;9.208;2024-03-29T10:39:53;9.40;99.90
18091;DHT22;9172;49.948;9.208;2024-03-29T10:42:22;9.30;99.90
18091;DHT22;9172;49.948;9.208;2024-03-29T10:44:53;9.30;99.90
18091;DHT22;9172;49.948;9.208;2024-03-29T10:47:24;9.30;99.90
18091;DHT22;9172;49.948;9.208;2024-03-29T10:49:54;9.30;99.90
18091;DHT22;9172;49.948;9.208;2024-03-29T10:52:25;9.30;99.90
18091;DHT22;9172;49.948;9.208;2024-03-29T10:54:54;9.30;99.90
18091;DHT22;9172;49.948;9.208;2024-03-29T10:57:25;9.30;99.90
18091;DHT22;9172;49.948;9.208;2024-03-29T11:00:00;9.30;99.90
18091;DHT22;9172;49.948;9.208;2024-03-29T11:02:35;9.30;99.90
18091;DHT22;9172;49.948;9.208;2024-03-29T11:05:09;9.40;99.90
18091;DHT22;9172;49.948;9.208;2024-03-29T11:10:20;9.40;99.90
18091;DHT22;9172;49.948;9.208;2024-03-29T11:13:10;9.50;99.90
18091;DHT22;9172;49.948;9.208;2024-03-29T11:15:32;9.50;99.90
18091;DHT22;9172;49.948;9.208;2024-03-29T11:18:02;9.60;99.90
18091;DHT22;9172;49.948;9.208;2024-03-29T11:20:32;9.60;99.90
18091;DHT22;9172;49.948;9.208;2024-03-29T11:23:08;9.70;99.90
18091;DHT22;9172;49.948;9.208;2024-03-29T11:25:42;9.70;99.90
18091;DHT22;9172;49.948;9.208;2024-03-29T11:28:12;9.80;99.90
18091;DHT22;9172;49.948;9.208;2024-03-29T11:30:42;9.80;99.90
18091;DHT22;9172;49.948;9.208;2024-03-29T11:36:12;9.90;99.90
18091;DHT22;9172;49.948;9.208;2024-03-29T11:41:19;10.00;99.90
18091;DHT22;9172;49.948;9.208;2024-03-29T11:43:49;10.10;99.90
18091;DHT22;9172;49.948;9.208;2024-03-29T11:46:19;10.10;99.90
18091;DHT22;9172;49.948;9.208;2024-03-29T11:48:48;10.20;99.90
18091;DHT22;9172;49.948;9.208;2024-03-29T11:53:57;10.30;99.90
18091;DHT22;9172;49.948;9.208;2024-03-29T11:56:28;10.30;99.90
18091;DHT22;9172;49.948;9.208;2024-03-29T11:58:56;10.40;99.90
18091;DHT22;9172;49.948;9.208;2024-03-29T12:01:27;10.40;99.90
18091;DHT22;9172;49.948;9.208;2024-03-29T12:03:56;10.50;99.90
18091;DHT22;9172;49.948;9.208;2024-03-29T12:06:28;10.50;99.90
18091;DHT22;9172;49.948;9.208;2024-03-29T12:08:57;10.60;99.90
18091;DHT22;9172;49.948;9.208;2024-03-29T12:11:27;10.60;99.90
18091;DHT22;9172;49.948;9.208;2024-03-29T12:13:56;10.70;99.90
18091;DHT22;9172;49.948;9.208;2024-03-29T12:16:26;10.70;99.90
18091;DHT22;9172;49.948;9.208;2024-03-29T12:18:55;10.70;99.90
18091;DHT22;9172;49.948;9.208;2024-03-29T12:21:24;10.70;99.90
18091;DHT22;9172;49.948;9.208;2024-03-29T12:23:53;10.70;99.90
18091;DHT22;9172;49.948;9.208;2024-03-29T12:26:22;10.70;99.90
18091;DHT22;9172;49.948;9.208;2024-03-29T12:28:51;10.70;99.90
18091;DHT22;9172;49.948;9.208;2024-03-29T12:31:21;10.70;99.90
18091;DHT22;9172;49.948;9.208;2024-03-29T12:33:53;10.80;99.90
18091;DHT22;9172;49.948;9.208;2024-03-29T12:36:24;10.80;99.90
18091;DHT22;9172;49.948;9.208;2024-03-29T12:38:55;10.80;99.90
18091;DHT22;9172;49.948;9.208;2024-03-29T12:41:26;10.80;99.90
18091;DHT22;9172;49.948;9.208;2024-03-29T12:43:55;10.80;99.90
18091;DHT22;9172;49.948;9.208;2024-03-29T12:46:24;10.90;99.90
18091;DHT22;9172;49.948;9.208;2024-03-29T12:49:00;10.90;99.90
18091;DHT22;9172;49.948;9.208;2024-03-29T12:51:28;10.90;99.90
18091;DHT22;9172;49.948;9.208;2024-03-29T12:56:38;10.90;99.90
18091;DHT22;9172;49.948;9.208;2024-03-29T12:59:08;10.90;99.90
18091;DHT22;9172;49.948;9.208;2024-03-29T13:01:37;11.00;99.90
18091;DHT22;9172;49.948;9.208;2024-03-29T13:04:06;11.00;99.90
18091;DHT22;9172;49.948;9.208;2024-03-29T13:06:35;11.00;99.90
18091;DHT22;9172;49.948;9.208;2024-03-29T13:09:04;11.00;99.90
18091;DHT22;9172;49.948;9.208;2024-03-29T13:11:32;11.00;99.90
18091;DHT22;9172;49.948;9.208;2024-03-29T13:14:01;11.00;99.90
18091;DHT22;9172;49.948;9.208;2024-03-29T13:16:30;11.00;99.90
18091;DHT22;9172;49.948;9.208;2024-03-29T13:18:59;11.00;99.90
18091;DHT22;9172;49.948;9.208;2024-03-29T13:21:27;11.00;99.90
18091;DHT22;9172;49.948;9.208;2024-03-29T13:23:56;11.00;99.90
18091;DHT22;9172;49.948;9.208;2024-03-29T13:26:24;11.00;99.90
18091;DHT22;9172;49.948;9.208;2024-03-29T13:28:53;11.00;99.90
18091;DHT22;9172;49.948;9.208;2024-03-29T13:31:22;11.10;99.90
18091;DHT22;9172;49.948;9.208;2024-03-29T13:33:52;11.00;99.90
18091;DHT22;9172;49.948;9.208;2024-03-29T13:36:22;11.00;99.90
18091;DHT22;9172;49.948;9.208;2024-03-29T13:38:51;11.00;99.90
18091;DHT22;9172;49.948;9.208;2024-03-29T13:41:19;11.00;99.90
18091;DHT22;9172;49.948;9.208;2024-03-29T13:43:48;11.00;99.90
18091;DHT22;9172;49.948;9.208;2024-03-29T13:46:17;11.00;99.90
18091;DHT22;9172;49.948;9.208;2024-03-29T13:48:45;11.00;99.90
18091;DHT22;9172;49.948;9.208;2024-03-29T13:51:15;11.00;99.90
18091;DHT22;9172;49.948;9.208;2024-03-29T13:53:44;11.00;99.90
18091;DHT22;9172;49.948;9.208;2024-03-29T13:56:12;11.00;99.90
18091;DHT22;9172;49.948;9.208;2024-03-29T13:58:41;11.00;99.90
18091;DHT22;9172;49.948;9.208;2024-03-29T14:01:10;11.00;99.90
18091;DHT22;9172;49.948;9.208;2024-03-29T14:03:38;11.00;99.90
18091;DHT22;9172;49.948;9.208;2024-03-29T14:06:07;11.00;99.90
18091;DHT22;9172;49.948;9.208;2024-03-29T14:08:36;11.00;99.90
18091;DHT22;9172;49.948;9.208;2024-03-29T14:11:05;11.00;99.90
18091;DHT22;9172;49.948;9.208;2024-03-29T14:13:33;11.00;99.90
18091;DHT22;9172;49.948;9.208;2024-03-29T14:16:02;11.10;99.90
18091;DHT22;9172;49.948;9.208;2024-03-29T14:18:31;11.10;99.90
18091;DHT22;9172;49.948;9.208;2024-03-29T14:20:59;11.10;99.90
18091;DHT22;9172;49.948;9.208;2024-03-29T14:23:28;11.10;99.90
18091;DHT22;9172;49.948;9.208;2024-03-29T14:25:57;11.10;99.90
18091;DHT22;9172;49.948;9.208;2024-03-29T14:28:25;11.10;99.90
18091;DHT22;9172;49.948;9.208;2024-03-29T14:30:54;11.10;99.90
18091;DHT22;9172;49.948;9.208;2024-03-29T14:33:22;11.10;99.90
18091;DHT22;9172;49.948;9.208;2024-03-29T14:35:51;11.10;99.90
18091;DHT22;9172;49.948;9.208;2024-03-29T14:38:21;11.10;99.90
18091;DHT22;9172;49.948;9.208;2024-03-29T14:40:49;11.10;99.90
18091;DHT22;9172;49.948;9.208;2024-03-29T14:43:18;11.10;99.90
18091;DHT22;9172;49.948;9.208;2024-03-29T14:45:46;11.10;99.90
18091;DHT22;9172;49.948;9.208;2024-03-29T14:48:16;11.20;99.90
18091;DHT22;9172;49.948;9.208;2024-03-29T14:50:46;11.20;99.90
18091;DHT22;9172;49.948;9.208;2024-03-29T14:53:14;11.20;99.90
18091;DHT22;9172;49.948;9.208;2024-03-29T14:55:44;11.30;99.90
18091;DHT22;9172;49.948;9.208;2024-03-29T14:58:13;11.30;99.90
18091;DHT22;9172;49.948;9.208;2024-03-29T15:00:42;11.30;99.90
18091;DHT22;9172;49.948;9.208;2024-03-29T15:03:12;11.30;99.90
18091;DHT22;9172;49.948;9.208;2024-03-29T15:05:41;11.30;99.90
18091;DHT22;9172;49.948;9.208;2024-03-29T15:08:09;11.30;99.90
18091;DHT22;9172;49.948;9.208;2024-03-29T15:10:40;11.30;99.90
18091;DHT22;9172;49.948;9.208;2024-03-29T15:13:09;11.30;99.90
18091;DHT22;9172;49.948;9.208;2024-03-29T15:15:37;11.30;99.90
18091;DHT22;9172;49.948;9.208;2024-03-29T15:18:06;11.30;99.90
18091;DHT22;9172;49.948;9.208;2024-03-29T15:20:35;11.30;99.90
18091;DHT22;9172;49.948;9.208;2024-03-29T15:23:04;11.30;99.90
18091;DHT22;9172;49.948;9.208;2024-03-29T15:25:35;11.30;99.90
18091;DHT22;9172;49.948;9.208;2024-03-29T15:28:05;11.30;99.90
18091;DHT22;9172;49.948;9.208;2024-03-29T15:30:52;11.30;99.90
18091;DHT22;9172;49.948;9.208;2024-03-29T15:33:22;11.30;99.90
18091;DHT22;9172;49.948;9.208;2024-03-29T15:35:51;11.30;99.90
18091;DHT22;9172;49.948;9.208;2024-03-29T15:38:19;11.30;99.90
18091;DHT22;9172;49.948;9.208;2024-03-29T15:40:54;11.30;99.90
18091;DHT22;9172;49.948;9.208;2024-03-29T15:43:22;11.30;99.90
18091;DHT22;9172;49.948;9.208;2024-03-29T15:45:51;9.60;99.90
18091;DHT22;9172;49.948;9.208;2024-03-29T15:48:20;11.40;99.90
18091;DHT22;9172;49.948;9.208;2024-03-29T15:50:48;11.40;99.90
18091;DHT22;9172;49.948;9.208;2024-03-29T15:53:17;11.30;99.90
18091;DHT22;9172;49.948;9.208;2024-03-29T15:55:47;11.30;99.90
18091;DHT22;9172;49.948;9.208;2024-03-29T15:58:16;11.30;99.90
18091;DHT22;9172;49.948;9.208;2024-03-29T16:00:44;11.30;99.90
18091;DHT22;9172;49.948;9.208;2024-03-29T16:03:14;11.40;99.90
18091;DHT22;9172;49.948;9.208;2024-03-29T16:05:44;11.40;99.90
18091;DHT22;9172;49.948;9.208;2024-03-29T16:08:13;11.40;99.90
18091;DHT22;9172;49.948;9.208;2024-03-29T16:10:53;11.40;99.90
18091;DHT22;9172;49.948;9.208;2024-03-29T16:13:22;11.40;99.90
18091;DHT22;9172;49.948;9.208;2024-03-29T16:15:53;11.50;99.90
18091;DHT22;9172;49.948;9.208;2024-03-29T16:18:22;11.50;99.90
18091;DHT22;9172;49.948;9.208;2024-03-29T16:20:51;11.50;99.90
18091;DHT22;9172;49.948;9.208;2024-03-29T16:23:20;11.60;99.90
18091;DHT22;9172;49.948;9.208;2024-03-29T16:25:48;11.60;99.90
18091;DHT22;9172;49.948;9.208;2024-03-29T16:28:20;11.60;99.90
18091;DHT22;9172;49.948;9.208;2024-03-29T16:30:50;11.60;99.90
18091;DHT22;9172;49.948;9.208;2024-03-29T16:33:20;11.70;99.90
18091;DHT22;9172;49.948;9.208;2024-03-29T16:35:48;11.70;99.90
18091;DHT22;9172;49.948;9.208;2024-03-29T16:38:17;11.70;99.90
18091;DHT22;9172;49.948;9.208;2024-03-29T16:40:45;11.70;99.90
18091;DHT22;9172;49.948;9.208;2024-03-29T16:43:14;11.70;99.90
18091;DHT22;9172;49.948;9.208;2024-03-29T16:45:43;11.70;99.90